createdAt,value
2024-04-15T00:01:26.180Z,2.03
2024-04-15T00:03:53.017Z,2.10
2024-04-15T00:06:19.717Z,2.17
2024-04-15T00:08:46.878Z,1.50
2024-04-15T00:11:13.998Z,2.10
2024-04-15T00:13:40.781Z,2.47
2024-04-15T00:16:10.880Z,1.67
2024-04-15T00:18:38.829Z,1.92
2024-04-15T00:21:11.140Z,3.05
2024-04-15T00:23:38.072Z,1.77
2024-04-15T00:26:04.985Z,2.00
2024-04-15T00:28:31.613Z,1.95
2024-04-15T00:30:58.390Z,1.88
2024-04-15T00:33:25.203Z,1.90
2024-04-15T00:35:52.261Z,2.05
2024-04-15T00:38:18.930Z,1.83
2024-04-15T00:40:45.636Z,1.67
2024-04-15T00:43:13.471Z,1.70
2024-04-15T00:45:40.602Z,1.88
2024-04-15T00:48:12.426Z,1.80
2024-04-15T00:50:41.734Z,2.00
2024-04-15T00:53:09.850Z,2.20
2024-04-15T00:55:38.516Z,1.60
2024-04-15T01:00:32.911Z,2.00
2024-04-15T01:02:59.771Z,1.80
2024-04-15T01:05:26.932Z,2.13
2024-04-15T01:07:53.635Z,1.83
2024-04-15T01:10:20.498Z,2.17
2024-04-15T01:12:47.571Z,2.00
2024-04-15T01:15:14.192Z,1.80
2024-04-15T01:17:40.921Z,2.20
2024-04-15T01:20:07.830Z,2.22
2024-04-15T01:22:44.334Z,1.95
2024-04-15T01:25:11.329Z,2.00
2024-04-15T01:27:38.391Z,2.30
2024-04-15T01:30:05.534Z,2.17
2024-04-15T01:32:32.735Z,1.98
2024-04-15T01:34:59.462Z,2.05
2024-04-15T01:37:26.155Z,2.30
2024-04-15T01:39:52.874Z,2.10
2024-04-15T01:42:19.670Z,2.40
2024-04-15T01:44:46.323Z,2.40
2024-04-15T01:47:12.989Z,2.38
2024-04-15T01:49:39.605Z,2.25
2024-04-15T01:52:06.593Z,2.25
2024-04-15T01:54:33.264Z,2.60
2024-04-15T01:56:59.993Z,2.45
2024-04-15T01:59:26.667Z,1.90
2024-04-15T02:01:53.524Z,2.70
2024-04-15T02:04:20.243Z,2.40
2024-04-15T02:06:46.856Z,2.40
2024-04-15T02:09:13.651Z,2.58
2024-04-15T02:11:40.299Z,2.38
2024-04-15T02:14:07.089Z,2.60
2024-04-15T02:16:34.068Z,2.55
2024-04-15T02:19:01.099Z,2.17
2024-04-15T02:21:27.745Z,2.35
2024-04-15T02:23:54.359Z,2.30
2024-04-15T02:26:20.988Z,2.55
2024-04-15T02:28:47.666Z,2.30
2024-04-15T02:31:14.679Z,2.10
2024-04-15T02:33:41.396Z,2.60
2024-04-15T02:36:08.019Z,2.03
2024-04-15T02:38:34.760Z,2.25
2024-04-15T02:41:01.415Z,2.10
2024-04-15T02:43:28.058Z,1.85
2024-04-15T02:45:54.701Z,2.25
2024-04-15T02:48:21.347Z,1.92
2024-04-15T02:50:47.992Z,2.20
2024-04-15T02:53:14.672Z,1.92
2024-04-15T02:55:43.133Z,2.00
2024-04-15T02:58:09.849Z,2.35
2024-04-15T03:00:36.558Z,2.58
2024-04-15T03:03:03.404Z,2.13
2024-04-15T03:05:30.173Z,2.10
2024-04-15T03:07:56.772Z,2.40
2024-04-15T03:10:23.494Z,2.20
2024-04-15T03:12:52.517Z,2.00
2024-04-15T03:15:19.492Z,2.13
2024-04-15T03:17:49.175Z,2.05
2024-04-15T03:20:16.793Z,2.20
2024-04-15T03:22:51.224Z,2.00
2024-04-15T03:27:52.037Z,1.90
2024-04-15T03:30:19.053Z,1.88
2024-04-15T03:32:45.736Z,1.98
2024-04-15T03:35:15.282Z,1.92
2024-04-15T03:37:43.126Z,2.60
2024-04-15T03:40:11.379Z,2.20
2024-04-15T03:42:38.155Z,2.33
2024-04-15T03:45:05.588Z,2.40
2024-04-15T03:47:32.478Z,2.45
2024-04-15T03:49:59.254Z,2.38
2024-04-15T03:52:25.910Z,2.50
2024-04-15T03:54:52.607Z,2.75
2024-04-15T03:57:19.540Z,2.72
2024-04-15T03:59:46.505Z,2.75
2024-04-15T04:02:13.323Z,2.38
2024-04-15T04:04:41.768Z,2.65
2024-04-15T04:07:08.755Z,2.45
2024-04-15T04:09:39.288Z,2.72
2024-04-15T04:12:06.153Z,2.78
2024-04-15T04:14:32.780Z,3.15
2024-04-15T04:16:59.625Z,3.38
2024-04-15T04:19:26.976Z,3.28
2024-04-15T04:21:53.802Z,3.42
2024-04-15T04:24:20.607Z,3.40
2024-04-15T04:26:47.281Z,3.50
2024-04-15T04:29:14.177Z,3.45
2024-04-15T04:31:41.266Z,3.60
2024-04-15T04:34:07.944Z,3.45
2024-04-15T04:36:34.740Z,3.42
2024-04-15T04:39:01.390Z,3.25
2024-04-15T04:41:29.741Z,3.90
2024-04-15T04:43:56.418Z,3.85
2024-04-15T04:46:23.267Z,3.50
2024-04-15T04:48:50.876Z,3.50
2024-04-15T04:51:17.821Z,3.40
2024-04-15T04:53:44.695Z,3.20
2024-04-15T04:56:12.893Z,3.60
2024-04-15T04:58:39.957Z,3.75
2024-04-15T05:01:10.378Z,3.47
2024-04-15T05:03:39.133Z,3.63
2024-04-15T05:08:36.302Z,3.55
2024-04-15T05:11:03.543Z,3.65
2024-04-15T05:13:30.482Z,3.20
2024-04-15T05:16:08.439Z,3.42
2024-04-15T05:18:36.541Z,3.83
2024-04-15T05:21:11.035Z,3.28
2024-04-15T05:26:04.583Z,3.13
2024-04-15T05:28:31.367Z,3.38
2024-04-15T05:30:58.587Z,4.03
2024-04-15T05:33:25.424Z,2.90
2024-04-15T05:35:52.305Z,3.75
2024-04-15T05:38:19.060Z,3.03
2024-04-15T05:40:45.813Z,3.22
2024-04-15T05:43:12.804Z,3.40
2024-04-15T05:45:40.314Z,3.13
2024-04-15T05:48:08.038Z,3.28
2024-04-15T05:50:34.793Z,3.10
2024-04-15T05:53:01.527Z,3.30
2024-04-15T05:55:28.216Z,3.50
2024-04-15T05:57:54.969Z,2.85
2024-04-15T06:00:22.040Z,3.53
2024-04-15T06:02:48.950Z,3.03
2024-04-15T06:05:15.842Z,3.15
2024-04-15T06:07:43.288Z,3.15
2024-04-15T06:10:11.025Z,3.00
2024-04-15T06:12:38.165Z,2.90
2024-04-15T06:15:05.210Z,2.92
2024-04-15T06:17:32.097Z,3.15
2024-04-15T06:19:58.899Z,3.40
2024-04-15T06:22:25.625Z,4.10
2024-04-15T06:24:52.548Z,3.45
2024-04-15T06:27:22.189Z,3.17
2024-04-15T06:29:51.600Z,3.53
2024-04-15T06:32:18.276Z,3.20
2024-04-15T06:34:44.912Z,3.53
2024-04-15T06:37:11.685Z,3.30
2024-04-15T06:39:38.874Z,2.58
2024-04-15T06:42:05.727Z,2.58
2024-04-15T06:44:34.748Z,2.50
2024-04-15T06:47:01.579Z,2.65
2024-04-15T06:49:28.808Z,2.67
2024-04-15T06:51:55.617Z,2.70
2024-04-15T06:54:22.560Z,2.67
2024-04-15T06:56:49.435Z,2.20
2024-04-15T06:59:16.325Z,2.50
2024-04-15T07:01:43.145Z,2.40
2024-04-15T07:04:11.483Z,2.40
2024-04-15T07:06:38.176Z,2.60
2024-04-15T07:09:04.901Z,2.30
2024-04-15T07:11:31.666Z,1.92
2024-04-15T07:13:58.352Z,2.20
2024-04-15T07:16:25.107Z,2.05
2024-04-15T07:18:51.860Z,2.47
2024-04-15T07:21:18.655Z,2.10
2024-04-15T07:23:47.083Z,3.58
2024-04-15T07:26:13.788Z,2.20
2024-04-15T07:28:40.592Z,2.13
2024-04-15T07:31:08.098Z,2.40
2024-04-15T07:33:34.958Z,2.20
2024-04-15T07:36:02.461Z,2.80
2024-04-15T07:38:29.478Z,2.20
2024-04-15T07:41:00.057Z,2.20
2024-04-15T07:43:28.097Z,2.00
2024-04-15T07:45:54.996Z,1.90
2024-04-15T07:48:21.923Z,1.92
2024-04-15T07:50:48.623Z,2.05
2024-04-15T07:53:15.360Z,1.63
2024-04-15T07:55:46.884Z,2.00
2024-04-15T07:58:13.828Z,1.80
2024-04-15T08:00:41.336Z,2.10
2024-04-15T08:03:08.129Z,1.75
2024-04-15T08:05:34.953Z,1.60
2024-04-15T08:08:01.625Z,1.92
2024-04-15T08:10:31.463Z,1.88
2024-04-15T08:12:58.250Z,1.70
2024-04-15T08:15:25.311Z,2.35
2024-04-15T08:17:52.335Z,2.00
2024-04-15T08:20:19.031Z,1.67
2024-04-15T08:22:48.663Z,2.42
2024-04-15T08:25:17.558Z,3.10
2024-04-15T08:27:44.346Z,2.53
2024-04-15T08:30:11.172Z,2.72
2024-04-15T08:32:41.771Z,3.10
2024-04-15T08:35:09.665Z,2.72
2024-04-15T08:37:36.401Z,3.20
2024-04-15T08:40:06.177Z,2.75
2024-04-15T08:43:05.556Z,2.58
2024-04-15T08:45:32.859Z,2.20
2024-04-15T08:47:59.712Z,2.10
2024-04-15T08:50:27.694Z,1.42
2024-04-15T08:52:56.728Z,1.20
2024-04-15T08:55:26.683Z,1.40
2024-04-15T08:57:53.948Z,1.30
2024-04-15T09:00:22.839Z,0.93
2024-04-15T09:05:18.615Z,0.90
2024-04-15T09:07:45.593Z,0.80
2024-04-15T09:10:16.696Z,1.00
2024-04-15T09:12:44.495Z,0.73
2024-04-15T09:15:12.508Z,1.15
2024-04-15T09:17:39.827Z,0.90
2024-04-15T09:20:12.083Z,0.90
2024-04-15T09:22:39.012Z,0.88
2024-04-15T09:25:07.728Z,0.85
2024-04-15T09:30:01.614Z,1.00
2024-04-15T09:32:28.891Z,0.80
2024-04-15T09:35:01.472Z,1.00
2024-04-15T09:37:29.028Z,0.98
2024-04-15T09:39:56.276Z,1.00
2024-04-15T09:42:23.092Z,0.88
2024-04-15T09:44:50.648Z,0.70
2024-04-15T09:47:18.851Z,0.80
2024-04-15T09:49:47.938Z,1.00
2024-04-15T09:52:32.477Z,0.80
2024-04-15T09:55:10.148Z,0.60
2024-04-15T09:57:41.200Z,0.90
2024-04-15T10:00:14.717Z,0.60
2024-04-15T10:03:04.584Z,1.10
2024-04-15T10:05:33.907Z,0.90
2024-04-15T10:08:00.627Z,0.90
2024-04-15T10:10:28.847Z,0.70
2024-04-15T10:12:57.490Z,0.80
2024-04-15T10:15:25.346Z,0.85
2024-04-15T10:18:01.557Z,0.70
2024-04-15T10:20:33.905Z,0.80
2024-04-15T10:23:06.279Z,0.93
2024-04-15T10:25:39.140Z,0.68
2024-04-15T10:28:06.854Z,0.68
2024-04-15T10:30:34.635Z,0.82
2024-04-15T10:33:07.672Z,0.93
2024-04-15T10:35:36.587Z,0.90
2024-04-15T10:38:08.405Z,0.77
2024-04-15T10:40:46.286Z,0.80
2024-04-15T10:43:15.225Z,0.70
2024-04-15T10:45:42.238Z,0.73
2024-04-15T10:48:10.611Z,0.73
2024-04-15T10:50:37.450Z,1.05
2024-04-15T10:53:07.083Z,0.85
2024-04-15T10:55:33.954Z,1.02
2024-04-15T10:58:00.759Z,0.90
2024-04-15T11:00:27.708Z,0.70
2024-04-15T11:02:57.025Z,0.70
2024-04-15T11:05:28.735Z,0.57
2024-04-15T11:07:55.400Z,0.75
2024-04-15T11:10:22.371Z,0.60
2024-04-15T11:12:53.785Z,0.70
2024-04-15T11:15:22.246Z,0.85
2024-04-15T11:17:54.011Z,0.80
2024-04-15T11:20:22.318Z,0.82
2024-04-15T11:22:52.998Z,0.80
2024-04-15T11:25:20.504Z,0.82
2024-04-15T11:27:54.275Z,0.50
2024-04-15T11:30:28.382Z,0.63
2024-04-15T11:33:02.965Z,0.82
2024-04-15T11:35:29.981Z,0.40
2024-04-15T11:38:04.667Z,0.70
2024-04-15T11:40:32.570Z,0.57
2024-04-15T11:42:59.775Z,0.60
2024-04-15T11:45:26.956Z,0.70
2024-04-15T11:47:54.481Z,0.80
2024-04-15T11:50:21.683Z,0.77
2024-04-15T11:52:48.966Z,1.00
2024-04-15T11:55:21.473Z,0.70
2024-04-15T11:57:50.158Z,0.70
2024-04-15T12:02:45.477Z,0.52
2024-04-15T12:05:14.227Z,0.57
2024-04-15T12:07:43.017Z,0.75
2024-04-15T12:10:11.849Z,0.40
2024-04-15T12:12:39.497Z,0.80
2024-04-15T12:15:09.344Z,0.52
2024-04-15T12:17:39.643Z,0.80
2024-04-15T12:20:08.873Z,0.70
2024-04-15T12:22:36.113Z,0.80
2024-04-15T12:25:11.365Z,0.70
2024-04-15T12:27:39.899Z,0.65
2024-04-15T12:30:11.445Z,0.82
2024-04-15T12:32:44.634Z,0.70
2024-04-15T12:35:18.232Z,0.70
2024-04-15T12:37:45.332Z,1.73
2024-04-15T12:40:14.566Z,0.70
2024-04-15T12:42:41.493Z,0.75
2024-04-15T12:45:10.927Z,0.63
2024-04-15T12:47:38.377Z,0.65
2024-04-15T12:50:06.332Z,0.85
2024-04-15T12:52:34.079Z,0.70
2024-04-15T12:55:01.167Z,0.90
2024-04-15T12:57:31.286Z,0.75
2024-04-15T12:59:58.255Z,0.85
2024-04-15T13:02:25.281Z,0.75
2024-04-15T13:04:52.277Z,0.93
2024-04-15T13:07:27.455Z,1.00
2024-04-15T13:09:55.162Z,1.35
2024-04-15T13:15:18.931Z,0.98
2024-04-15T13:17:53.105Z,0.70
2024-04-15T13:20:26.109Z,0.55
2024-04-15T13:22:57.620Z,0.60
2024-04-15T13:25:24.838Z,0.88
2024-04-15T13:27:52.593Z,0.60
2024-04-15T13:30:22.092Z,1.17
2024-04-15T13:32:49.470Z,0.95
2024-04-15T13:35:22.456Z,0.82
2024-04-15T13:38:06.091Z,0.93
2024-04-15T13:40:33.283Z,0.80
2024-04-15T13:43:00.168Z,0.75
2024-04-15T13:45:26.910Z,0.73
2024-04-15T13:48:01.649Z,1.00
2024-04-15T13:50:30.624Z,0.80
2024-04-15T13:52:57.279Z,0.85
2024-04-15T13:55:24.288Z,1.00
2024-04-15T13:57:51.386Z,0.95
2024-04-15T14:00:18.243Z,1.08
2024-04-15T14:02:45.282Z,0.88
2024-04-15T14:05:12.420Z,0.90
2024-04-15T14:07:44.194Z,1.02
2024-04-15T14:10:11.977Z,0.60
2024-04-15T14:12:40.259Z,0.90
2024-04-15T14:15:07.358Z,0.82
2024-04-15T14:17:34.282Z,1.00
2024-04-15T14:20:01.250Z,1.02
2024-04-15T14:22:28.170Z,0.73
2024-04-15T14:24:54.862Z,0.80
2024-04-15T14:27:21.718Z,1.30
2024-04-15T14:29:48.418Z,0.85
2024-04-15T14:32:15.079Z,1.00
2024-04-15T14:34:45.593Z,0.80
2024-04-15T14:37:13.126Z,0.70
2024-04-15T14:39:39.767Z,1.10
2024-04-15T14:42:07.245Z,0.90
2024-04-15T14:44:33.878Z,0.80
2024-04-15T14:47:00.655Z,0.80
2024-04-15T14:49:28.890Z,0.90
2024-04-15T14:51:56.189Z,0.98
2024-04-15T14:54:22.952Z,0.70
2024-04-15T14:56:49.690Z,1.00
2024-04-15T14:59:16.420Z,0.98
2024-04-15T15:01:43.252Z,1.25
2024-04-15T15:04:10.288Z,0.70
2024-04-15T15:06:37.424Z,1.10
2024-04-15T15:09:04.542Z,1.23
2024-04-15T15:11:31.292Z,0.65
2024-04-15T15:13:58.329Z,0.90
2024-04-15T15:16:25.196Z,0.95
2024-04-15T15:18:52.210Z,1.00
2024-04-15T15:21:24.130Z,1.00
2024-04-15T15:23:55.278Z,1.65
2024-04-15T15:26:22.167Z,1.23
2024-04-15T15:28:48.948Z,0.95
2024-04-15T15:31:15.750Z,0.82
2024-04-15T15:33:45.314Z,0.82
2024-04-15T15:36:12.137Z,1.10
2024-04-15T15:38:39.161Z,0.93
2024-04-15T15:41:05.909Z,1.10
2024-04-15T15:43:41.918Z,1.25
2024-04-15T15:46:11.229Z,0.95
2024-04-15T15:48:38.375Z,1.08
2024-04-15T15:51:05.467Z,1.00
2024-04-15T15:53:32.255Z,1.00
2024-04-15T15:55:58.940Z,0.80
2024-04-15T15:58:25.744Z,0.88
2024-04-15T16:00:52.534Z,0.88
2024-04-15T16:03:21.694Z,1.52
2024-04-15T16:05:51.375Z,0.80
2024-04-15T16:08:20.798Z,0.80
2024-04-15T16:10:47.690Z,1.20
2024-04-15T16:13:15.289Z,0.93
2024-04-15T16:15:42.200Z,0.85
2024-04-15T16:18:09.218Z,1.50
2024-04-15T16:20:36.395Z,0.70
2024-04-15T16:23:03.211Z,1.02
2024-04-15T16:25:29.971Z,1.05
2024-04-15T16:27:56.730Z,0.90
2024-04-15T16:30:23.544Z,1.58
2024-04-15T16:32:50.487Z,0.90
2024-04-15T16:35:20.089Z,0.90
2024-04-15T16:37:47.002Z,0.60
2024-04-15T16:40:13.823Z,0.90
2024-04-15T16:42:40.617Z,1.15
2024-04-15T16:45:07.974Z,1.27
2024-04-15T16:47:34.907Z,1.13
2024-04-15T16:50:01.771Z,1.17
2024-04-15T16:52:28.720Z,0.80
2024-04-15T16:54:55.488Z,0.80
2024-04-15T16:57:22.222Z,0.80
2024-04-15T16:59:49.045Z,1.08
2024-04-15T17:02:17.455Z,0.77
2024-04-15T17:04:44.445Z,0.90
2024-04-15T17:07:11.522Z,0.90
2024-04-15T17:09:38.295Z,0.65
2024-04-15T17:12:05.508Z,0.65
2024-04-15T17:14:32.277Z,2.45
2024-04-15T17:16:59.610Z,0.80
2024-04-15T17:19:26.292Z,0.80
2024-04-15T17:22:18.266Z,0.40
2024-04-15T17:25:01.945Z,0.60
2024-04-15T17:28:47.302Z,0.50
2024-04-15T17:31:17.468Z,0.60
2024-04-15T17:33:50.731Z,0.28
2024-04-15T17:36:50.007Z,0.28
2024-04-15T17:39:18.962Z,0.45
2024-04-15T17:41:45.685Z,0.35
2024-04-15T17:44:14.584Z,0.28
2024-04-15T17:46:43.226Z,0.50
2024-04-15T17:49:09.961Z,0.50
2024-04-15T17:51:37.014Z,0.50
2024-04-15T17:54:04.077Z,0.63
2024-04-15T17:56:33.157Z,0.45
2024-04-15T17:58:59.987Z,0.63
2024-04-15T18:01:26.819Z,0.70
2024-04-15T18:03:53.647Z,0.60
2024-04-15T18:06:20.602Z,0.70
2024-04-15T18:11:32.734Z,0.45
2024-04-15T18:14:02.656Z,0.38
2024-04-15T18:16:29.638Z,0.30
2024-04-15T18:18:56.973Z,0.47
2024-04-15T18:21:23.672Z,0.30
2024-04-15T18:23:53.008Z,0.50
2024-04-15T18:26:19.784Z,0.50
2024-04-15T18:28:46.413Z,0.47
2024-04-15T18:31:13.169Z,0.50
2024-04-15T18:33:39.987Z,0.40
2024-04-15T18:36:08.415Z,0.57
2024-04-15T18:38:35.203Z,0.55
2024-04-15T18:41:01.938Z,0.43
2024-04-15T18:43:28.818Z,0.30
2024-04-15T18:45:55.591Z,0.45
2024-04-15T18:48:22.553Z,0.60
2024-04-15T18:50:49.443Z,0.60
2024-04-15T18:53:16.224Z,0.50
2024-04-15T18:55:43.269Z,0.45
2024-04-15T18:58:12.469Z,0.57
2024-04-15T19:00:39.806Z,0.50
2024-04-15T19:03:16.337Z,0.40
2024-04-15T19:05:46.263Z,0.50
2024-04-15T19:08:16.200Z,0.50
2024-04-15T19:10:44.004Z,0.60
2024-04-15T19:13:11.038Z,0.40
2024-04-15T19:15:37.934Z,0.40
2024-04-15T19:18:05.477Z,1.02
2024-04-15T19:20:35.919Z,0.68
2024-04-15T19:23:03.888Z,0.50
2024-04-15T19:25:32.563Z,0.55
2024-04-15T19:27:59.528Z,0.60
2024-04-15T19:30:26.398Z,0.65
2024-04-15T19:32:53.648Z,0.45
2024-04-15T19:35:20.550Z,0.60
2024-04-15T19:37:48.830Z,0.50
2024-04-15T19:40:15.633Z,0.50
2024-04-15T19:42:44.871Z,0.60
2024-04-15T19:45:11.963Z,0.60
2024-04-15T19:47:39.333Z,0.60
2024-04-15T19:50:06.762Z,0.50
2024-04-15T19:52:33.964Z,0.60
2024-04-15T19:55:04.186Z,0.63
2024-04-15T19:57:31.326Z,0.50
2024-04-15T19:59:57.969Z,0.50
2024-04-15T20:02:24.668Z,0.43
2024-04-15T20:04:51.521Z,0.57
2024-04-15T20:07:18.573Z,0.47
2024-04-15T20:09:45.277Z,0.57
2024-04-15T20:12:11.931Z,0.40
2024-04-15T20:14:38.682Z,0.70
2024-04-15T20:17:21.438Z,0.50
2024-04-15T20:19:50.999Z,0.80
2024-04-15T20:22:17.811Z,0.50
2024-04-15T20:24:44.477Z,0.60
2024-04-15T20:27:11.496Z,0.60
2024-04-15T20:29:38.157Z,0.60
2024-04-15T20:32:05.061Z,0.73
2024-04-15T20:34:31.842Z,0.90
2024-04-15T20:36:59.503Z,1.13
2024-04-15T20:39:26.186Z,0.80
2024-04-15T20:41:52.794Z,1.10
2024-04-15T20:44:19.415Z,1.38
2024-04-15T20:46:46.106Z,0.80
2024-04-15T20:49:12.897Z,0.68
2024-04-15T20:51:39.548Z,0.65
2024-04-15T20:54:06.282Z,0.80
2024-04-15T20:56:33.364Z,0.52
2024-04-15T20:58:59.965Z,0.65
2024-04-15T21:01:27.088Z,0.57
2024-04-15T21:03:53.969Z,0.60
2024-04-15T21:06:23.284Z,0.70
2024-04-15T21:08:53.131Z,0.98
2024-04-15T21:11:21.399Z,0.80
2024-04-15T21:13:48.425Z,0.63
2024-04-15T21:16:15.906Z,0.73
2024-04-15T21:18:42.628Z,0.75
2024-04-15T21:21:09.299Z,1.08
2024-04-15T21:23:35.956Z,0.60
2024-04-15T21:26:04.979Z,0.70
2024-04-15T21:28:31.781Z,1.10
2024-04-15T21:30:59.326Z,0.75
2024-04-15T21:33:26.047Z,1.00
2024-04-15T21:35:52.722Z,0.77
2024-04-15T21:38:19.405Z,1.00
2024-04-15T21:40:46.060Z,0.73
2024-04-15T21:43:12.826Z,0.80
2024-04-15T21:45:39.650Z,0.65
2024-04-15T21:48:06.546Z,0.70
2024-04-15T21:50:33.243Z,1.20
2024-04-15T21:52:59.912Z,0.70
2024-04-15T21:55:26.549Z,0.90
2024-04-15T21:57:53.166Z,0.73
2024-04-15T22:00:19.949Z,0.80
2024-04-15T22:02:46.616Z,0.80
2024-04-15T22:05:13.551Z,0.80
2024-04-15T22:07:40.339Z,1.00
2024-04-15T22:10:07.271Z,0.80
2024-04-15T22:12:33.950Z,0.55
2024-04-15T22:15:00.607Z,0.80
2024-04-15T22:17:33.184Z,0.70
2024-04-15T22:19:59.983Z,0.60
2024-04-15T22:22:26.677Z,1.00
2024-04-15T22:24:53.512Z,0.90
2024-04-15T22:27:20.294Z,0.75
2024-04-15T22:29:47.032Z,0.80
2024-04-15T22:32:13.639Z,0.65
2024-04-15T22:34:40.460Z,0.70
2024-04-15T22:37:07.320Z,0.77
2024-04-15T22:39:34.448Z,0.95
2024-04-15T22:42:01.171Z,0.80
2024-04-15T22:44:27.842Z,0.90
2024-04-15T22:46:54.514Z,0.68
2024-04-15T22:49:21.226Z,0.80
2024-04-15T22:51:47.851Z,0.93
2024-04-15T22:54:14.461Z,1.48
2024-04-15T22:56:45.305Z,0.90
2024-04-15T22:59:12.086Z,0.93
2024-04-15T23:01:38.786Z,0.73
2024-04-15T23:04:05.683Z,0.80
2024-04-15T23:06:32.418Z,0.88
2024-04-15T23:08:59.249Z,0.70
2024-04-15T23:11:25.987Z,0.80
2024-04-15T23:13:52.681Z,0.85
2024-04-15T23:16:19.484Z,0.85
2024-04-15T23:18:47.666Z,0.85
2024-04-15T23:21:14.394Z,0.73
2024-04-15T23:23:41.003Z,0.73
2024-04-15T23:26:08.197Z,1.02
2024-04-15T23:28:34.929Z,0.77
2024-04-15T23:31:03.354Z,0.60
2024-04-15T23:33:31.167Z,0.80
2024-04-15T23:35:57.964Z,0.85
2024-04-15T23:38:24.644Z,1.00
2024-04-15T23:40:51.558Z,1.45
2024-04-15T23:43:18.213Z,0.63
2024-04-15T23:46:03.561Z,1.00
2024-04-15T23:48:49.231Z,1.02
2024-04-15T23:51:34.652Z,1.10
2024-04-15T23:54:20.725Z,1.05
2024-04-15T23:57:06.209Z,1.08
2024-04-15T23:59:32.876Z,0.50
